Time;durP1;ratioP1;P1;durP2;ratioP2;P2;SDS_P1;SDS_P2;PMS_P1;PMS_P2;Temp;Humidity;BMP_temperature;BMP_pressure;BME280_temperature;BME280_humidity;BME280_pressure;Samples;Min_cycle;Max_cycle;Signal;HPM_P1;HPM_P2
2022/05/20 00:01:58;;;;;;;27.52;18.92;;;11.40;99.90;;;;;;4968556;28;20034;-86
2022/05/20 00:04:24;;;;;;;28.67;21.38;;;11.40;99.90;;;;;;4962868;28;20125;-86
2022/05/20 00:06:50;;;;;;;28.70;20.02;;;11.40;99.90;;;;;;4960659;28;20576;-85
2022/05/20 00:09:16;;;;;;;33.55;22.42;;;11.40;99.90;;;;;;4971432;28;20054;-87
2022/05/20 00:11:41;;;;;;;33.45;24.23;;;11.30;99.90;;;;;;4983759;28;20034;-86
2022/05/20 00:14:06;;;;;;;26.50;20.27;;;11.30;99.90;;;;;;4967167;28;20026;-86
2022/05/20 00:16:36;;;;;;;25.27;17.25;;;11.30;99.90;;;;;;4962844;28;20146;-86
2022/05/20 00:19:03;;;;;;;21.27;15.95;;;11.30;99.90;;;;;;4970524;28;20022;-86
2022/05/20 00:21:29;;;;;;;22.73;15.40;;;11.20;99.90;;;;;;4969876;28;20439;-87
2022/05/20 00:23:55;;;;;;;34.13;23.55;;;11.10;99.90;;;;;;4962040;28;20060;-86
2022/05/20 00:26:20;;;;;;;27.75;20.60;;;11.10;99.90;;;;;;4979994;28;20045;-86
2022/05/20 00:28:48;;;;;;;29.52;20.75;;;11.10;99.90;;;;;;4960581;28;20023;-87
2022/05/20 00:31:15;;;;;;;29.88;21.35;;;11.10;99.90;;;;;;4975910;28;20034;-87
2022/05/20 00:33:41;;;;;;;29.75;23.02;;;11.00;99.90;;;;;;4984565;28;20026;-87
2022/05/20 00:36:07;;;;;;;32.83;22.67;;;11.00;99.90;;;;;;4979573;28;20523;-87
2022/05/20 00:38:33;;;;;;;37.13;25.23;;;10.90;99.90;;;;;;4968809;28;20367;-87
2022/05/20 00:40:59;;;;;;;36.63;25.15;;;10.90;99.90;;;;;;4979036;28;20026;-87
2022/05/20 00:43:34;;;;;;;34.50;24.48;;;10.90;99.90;;;;;;4985130;28;20026;-85
2022/05/20 00:46:06;;;;;;;33.70;23.98;;;10.90;99.90;;;;;;4963755;28;20049;-86
2022/05/20 00:48:32;;;;;;;40.85;26.55;;;10.80;99.90;;;;;;4974726;28;20029;-85
2022/05/20 00:51:14;;;;;;;40.55;25.90;;;10.90;99.90;;;;;;4969816;28;20038;-86
2022/05/20 00:53:47;;;;;;;36.15;25.92;;;10.90;99.90;;;;;;4987459;28;20022;-86
2022/05/20 00:56:14;;;;;;;;;;;10.90;99.90;;;;;;4973198;28;20035;-87
2022/05/20 00:58:41;;;;;;;44.42;27.70;;;10.90;99.90;;;;;;4989234;28;19911;-87
2022/05/20 01:01:07;;;;;;;44.78;29.52;;;10.80;99.90;;;;;;4972533;28;20033;-87
2022/05/20 01:03:33;;;;;;;47.08;29.70;;;10.80;99.90;;;;;;4969568;28;20022;-87
2022/05/20 01:05:59;;;;;;;31.48;21.33;;;10.80;99.90;;;;;;4969744;28;20042;-87
2022/05/20 01:08:29;;;;;;;28.98;20.38;;;10.80;99.90;;;;;;4971386;28;20038;-87
2022/05/20 01:10:54;;;;;;;27.95;21.30;;;10.70;99.90;;;;;;4982749;28;20490;-88
2022/05/20 01:13:23;;;;;;;30.25;21.98;;;10.70;99.90;;;;;;4971274;28;20088;-87
2022/05/20 01:15:49;;;;;;;38.30;27.73;;;10.60;99.90;;;;;;4973691;28;20495;-86
2022/05/20 01:18:15;;;;;;;31.75;22.05;;;10.60;99.90;;;;;;4978291;28;20031;-87
2022/05/20 01:20:46;;;;;;;34.22;23.73;;;10.60;99.90;;;;;;4975545;28;20441;-87
2022/05/20 01:23:15;;;;;;;36.72;27.13;;;10.60;99.90;;;;;;4977411;28;20023;-86
2022/05/20 01:25:44;;;;;;;31.50;23.38;;;10.60;99.90;;;;;;4987070;28;20070;-85
2022/05/20 01:28:10;;;;;;;37.85;25.65;;;10.60;99.90;;;;;;4976296;28;20505;-86
2022/05/20 01:30:39;;;;;;;38.53;27.77;;;10.60;99.90;;;;;;4973774;28;20113;-86
2022/05/20 01:33:06;;;;;;;40.00;27.40;;;10.60;99.90;;;;;;4974146;28;20047;-86
2022/05/20 01:35:37;;;;;;;43.85;30.27;;;10.60;99.90;;;;;;4971706;28;20085;-86
2022/05/20 01:38:04;;;;;;;42.63;30.85;;;10.60;99.90;;;;;;4967554;28;20513;-87
2022/05/20 01:40:46;;;;;;;24.52;19.92;;;10.60;99.90;;;;;;4969764;28;20154;-86
2022/05/20 01:43:36;;;;;;;38.80;25.27;;;10.50;99.90;;;;;;4974072;28;20093;-86
2022/05/20 01:46:11;;;;;;;31.30;22.92;;;10.50;99.90;;;;;;4961810;28;20463;-86
2022/05/20 01:48:43;;;;;;;38.72;25.75;;;10.50;99.90;;;;;;4981740;28;20105;-86
2022/05/20 01:51:14;;;;;;;41.25;28.20;;;10.50;99.90;;;;;;4985418;28;20037;-86
2022/05/20 01:53:54;;;;;;;50.55;31.77;;;10.40;99.90;;;;;;4988978;28;20027;-87
2022/05/20 01:56:29;;;;;;;45.10;31.23;;;10.40;99.90;;;;;;4982901;28;20026;-85
2022/05/20 01:59:07;;;;;;;31.27;22.63;;;10.40;99.90;;;;;;4988676;28;20037;-86
2022/05/20 02:01:45;;;;;;;36.22;27.17;;;10.40;99.90;;;;;;4972736;28;20035;-86
2022/05/20 02:04:28;;;;;;;33.58;23.15;;;10.40;99.90;;;;;;4981214;28;20027;-86
2022/05/20 02:06:56;;;;;;;;;;;10.40;99.90;;;;;;4970142;28;20047;-87
2022/05/20 02:09:31;;;;;;;29.45;21.20;;;10.30;99.90;;;;;;4959759;28;20004;-85
2022/05/20 02:11:57;;;;;;;29.92;22.70;;;10.20;99.90;;;;;;4978786;28;20063;-86
2022/05/20 02:14:29;;;;;;;39.03;26.10;;;10.30;99.90;;;;;;4974059;28;20027;-86
2022/05/20 02:17:07;;;;;;;33.67;23.65;;;10.20;99.90;;;;;;4959246;28;20482;-86
2022/05/20 02:20:04;;;;;;;37.80;26.73;;;10.20;99.90;;;;;;4973014;28;20050;-86
2022/05/20 02:22:33;;;;;;;35.80;24.65;;;10.20;99.90;;;;;;4971668;28;20113;-86
2022/05/20 02:25:01;;;;;;;39.38;28.33;;;10.20;99.90;;;;;;4965928;28;20410;-87
2022/05/20 02:27:31;;;;;;;34.72;27.83;;;10.20;99.90;;;;;;4968292;28;20058;-86
2022/05/20 02:30:06;;;;;;;36.05;27.33;;;10.20;99.90;;;;;;4967101;28;20050;-86
2022/05/20 02:32:54;;;;;;;41.17;28.08;;;10.20;99.90;;;;;;4963678;28;20027;-86
2022/05/20 02:35:19;;;;;;;52.10;31.50;;;10.20;99.90;;;;;;4965744;28;20038;-86
2022/05/20 02:37:46;;;;;;;40.40;30.40;;;10.30;99.90;;;;;;4972538;28;20081;-86
2022/05/20 02:40:15;;;;;;;43.05;31.80;;;10.30;99.90;;;;;;4977249;28;20261;-85
2022/05/20 02:42:41;;;;;;;49.38;33.15;;;10.30;99.90;;;;;;4965440;28;20434;-86
2022/05/20 02:45:07;;;;;;;50.50;33.17;;;10.30;99.90;;;;;;4966927;28;20023;-86
2022/05/20 02:47:34;;;;;;;46.05;30.15;;;10.30;99.90;;;;;;4961760;28;20078;-86
2022/05/20 02:50:06;;;;;;;44.70;29.23;;;10.30;99.90;;;;;;4965231;28;20100;-86
2022/05/20 02:52:31;;;;;;;39.07;27.53;;;10.30;99.90;;;;;;4960333;28;20032;-86
2022/05/20 02:54:57;;;;;;;43.67;29.85;;;10.30;99.90;;;;;;4961303;28;20026;-86
2022/05/20 02:57:23;;;;;;;47.92;30.73;;;10.30;99.90;;;;;;4960288;28;20023;-86
2022/05/20 03:05:20;;;;;;;39.50;26.80;;;10.20;99.90;;;;;;4985573;28;20073;-86
2022/05/20 03:07:46;;;;;;;42.38;27.77;;;10.20;99.90;;;;;;4972811;28;20121;-85
2022/05/20 03:10:12;;;;;;;39.83;26.25;;;10.10;99.90;;;;;;4983999;28;21007;-86
2022/05/20 03:12:38;;;;;;;42.30;27.85;;;10.10;99.90;;;;;;4977917;28;20034;-86
2022/05/20 03:15:10;;;;;;;33.72;19.90;;;10.10;99.90;;;;;;4983600;28;20050;-86
2022/05/20 03:17:36;;;;;;;32.50;19.38;;;10.10;99.90;;;;;;4981745;28;20117;-87
2022/05/20 03:20:03;;;;;;;29.80;21.35;;;10.10;99.90;;;;;;4979388;28;20118;-86
2022/05/20 03:22:29;;;;;;;31.75;21.70;;;10.00;99.90;;;;;;4967204;28;20030;-85
2022/05/20 03:24:54;;;;;;;36.70;24.75;;;10.00;99.90;;;;;;4973137;28;20042;-86
2022/05/20 03:27:20;;;;;;;38.83;25.45;;;10.00;99.90;;;;;;4972293;28;20227;-86
2022/05/20 03:29:46;;;;;;;30.67;21.40;;;10.00;99.90;;;;;;4969687;28;20114;-86
2022/05/20 03:32:12;;;;;;;31.17;21.52;;;10.00;99.90;;;;;;4978078;28;20034;-86
2022/05/20 03:34:39;;;;;;;26.40;19.98;;;10.00;99.90;;;;;;4959870;28;20181;-86
2022/05/20 03:37:05;;;;;;;130.40;22.27;;;10.00;99.90;;;;;;4964672;28;20078;-86
2022/05/20 03:39:31;;;;;;;23.58;17.17;;;9.90;99.90;;;;;;4965105;28;20027;-87
2022/05/20 03:41:57;;;;;;;25.92;19.48;;;9.90;99.90;;;;;;4963236;28;20024;-86
2022/05/20 03:44:24;;;;;;;35.33;23.75;;;9.90;99.90;;;;;;4965824;28;20113;-86
2022/05/20 03:46:52;;;;;;;28.48;21.85;;;9.90;99.90;;;;;;4961372;28;20035;-87
2022/05/20 03:49:19;;;;;;;40.55;25.88;;;10.00;99.90;;;;;;4964387;28;20478;-86
2022/05/20 03:51:46;;;;;;;40.90;27.50;;;10.00;99.90;;;;;;4967561;28;20105;-86
2022/05/20 03:54:12;;;;;;;41.00;26.75;;;10.00;99.90;;;;;;4966353;28;20403;-86
2022/05/20 03:56:40;;;;;;;43.72;29.23;;;10.10;99.90;;;;;;4963334;28;20064;-87
2022/05/20 03:59:08;;;;;;;49.72;25.52;;;10.10;99.90;;;;;;4964250;28;20027;-87
2022/05/20 04:04:18;;;;;;;53.67;27.98;;;10.20;99.90;;;;;;4977073;28;20062;-86
2022/05/20 04:06:44;;;;;;;117.18;33.53;;;10.30;99.90;;;;;;4969752;28;20069;-86
2022/05/20 04:09:09;;;;;;;90.35;34.38;;;10.30;99.90;;;;;;4970209;28;20028;-86
2022/05/20 04:11:35;;;;;;;140.73;35.97;;;10.40;99.90;;;;;;4975340;28;20475;-86
2022/05/20 04:14:01;;;;;;;163.40;41.40;;;10.40;99.90;;;;;;4972392;28;20023;-86
2022/05/20 04:16:26;;;;;;;126.78;40.75;;;10.50;99.90;;;;;;4975780;28;20038;-86
2022/05/20 04:18:52;;;;;;;110.85;41.03;;;10.60;99.90;;;;;;4974330;28;20041;-87
2022/05/20 04:21:18;;;;;;;133.48;41.75;;;10.70;99.90;;;;;;4969336;28;20029;-87
2022/05/20 04:23:43;;;;;;;77.93;39.45;;;10.70;99.90;;;;;;4974489;28;20053;-87
2022/05/20 04:26:11;;;;;;;102.38;41.50;;;10.80;99.90;;;;;;4949283;28;20421;-86
2022/05/20 04:28:37;;;;;;;122.10;39.78;;;10.80;99.90;;;;;;4968530;28;20018;-86
2022/05/20 04:31:05;;;;;;;169.85;46.83;;;10.80;99.90;;;;;;4965603;28;20363;-86
2022/05/20 04:33:30;;;;;;;90.00;42.17;;;10.90;99.90;;;;;;4961842;28;20549;-86
2022/05/20 04:35:56;;;;;;;82.00;42.47;;;10.90;99.90;;;;;;4972893;28;20022;-86
2022/05/20 04:38:22;;;;;;;64.82;41.88;;;11.00;99.90;;;;;;4962151;28;20098;-86
2022/05/20 04:46:56;;;;;;;89.70;44.72;;;11.00;99.90;;;;;;4968428;28;20027;-86
2022/05/20 04:49:03;;;;;;;73.43;43.53;;;11.10;99.90;;;;;;4993299;28;20407;-86
2022/05/20 04:51:28;;;;;;;71.75;42.05;;;11.10;99.90;;;;;;4974407;28;20041;-87
2022/05/20 04:56:38;;;;;;;72.28;43.13;;;11.10;99.90;;;;;;4984764;28;20041;-86
2022/05/20 04:59:03;;;;;;;64.45;40.65;;;11.20;99.90;;;;;;4971085;28;20027;-87
2022/05/20 05:01:29;;;;;;;58.22;40.67;;;11.30;99.90;;;;;;4970539;28;20081;-86
2022/05/20 05:03:55;;;;;;;83.20;42.75;;;11.30;99.90;;;;;;4972397;28;20054;-87
2022/05/20 05:06:20;;;;;;;58.38;38.03;;;11.40;99.90;;;;;;4975412;28;20053;-86
2022/05/20 05:08:46;;;;;;;130.43;43.50;;;11.50;99.90;;;;;;4971589;28;20058;-87
2022/05/20 05:11:11;;;;;;;99.40;43.08;;;11.50;99.90;;;;;;4966396;28;20085;-86
2022/05/20 05:13:37;;;;;;;60.13;41.50;;;11.60;99.90;;;;;;4969845;28;20090;-87
2022/05/20 05:16:09;;;;;;;67.35;41.55;;;11.80;99.90;;;;;;4969644;28;20114;-87
2022/05/20 05:18:37;;;;;;;67.53;43.67;;;11.90;99.90;;;;;;4974268;28;20022;-86
2022/05/20 05:21:03;;;;;;;69.63;44.85;;;12.00;99.90;;;;;;4989778;28;20030;-84
2022/05/20 05:23:29;;;;;;;78.38;42.13;;;12.20;99.90;;;;;;4974743;28;20038;-84
2022/05/20 05:25:55;;;;;;;68.00;40.50;;;12.20;99.90;;;;;;4970377;28;20376;-84
2022/05/20 05:28:22;;;;;;;85.93;45.45;;;12.30;99.90;;;;;;4966765;28;20395;-86
2022/05/20 05:30:51;;;;;;;80.07;44.20;;;12.40;99.90;;;;;;4970006;28;20514;-86
2022/05/20 05:33:19;;;;;;;54.78;40.83;;;12.60;99.90;;;;;;4974695;28;20058;-86
2022/05/20 05:35:45;;;;;;;51.60;40.55;;;12.80;99.90;;;;;;4968945;28;20069;-86
2022/05/20 05:38:10;;;;;;;66.82;43.53;;;12.90;99.90;;;;;;4972984;28;20031;-86
2022/05/20 05:40:37;;;;;;;56.50;43.20;;;13.00;99.90;;;;;;4972920;28;20502;-85
2022/05/20 05:43:03;;;;;;;53.70;41.25;;;13.20;99.90;;;;;;4969675;28;20041;-87
2022/05/20 05:45:30;;;;;;;58.97;43.33;;;13.40;99.90;;;;;;4977692;28;20064;-85
2022/05/20 05:47:59;;;;;;;56.67;42.35;;;13.60;99.90;;;;;;4977088;28;20030;-87
2022/05/20 05:50:26;;;;;;;53.55;41.55;;;13.70;99.90;;;;;;4974359;28;20037;-85
2022/05/20 05:52:56;;;;;;;56.05;43.20;;;13.90;99.90;;;;;;4971876;28;20042;-86
2022/05/20 05:55:22;;;;;;;52.53;41.85;;;14.10;99.90;;;;;;4993138;28;20026;-86
2022/05/20 05:57:48;;;;;;;46.83;39.83;;;14.30;99.90;;;;;;4974099;28;20026;-86
2022/05/20 06:00:14;;;;;;;47.33;37.85;;;14.50;99.90;;;;;;4982735;28;20901;-86
2022/05/20 06:02:39;;;;;;;53.47;37.97;;;14.60;99.90;;;;;;4987532;28;20054;-86
2022/05/20 06:05:05;;;;;;;44.92;35.80;;;14.80;99.90;;;;;;4992076;28;20030;-87
2022/05/20 06:07:31;;;;;;;40.78;32.03;;;14.90;99.90;;;;;;4974704;28;20391;-86
2022/05/20 06:09:56;;;;;;;40.55;32.83;;;14.90;99.90;;;;;;4974614;28;20494;-86
2022/05/20 06:12:22;;;;;;;41.15;29.27;;;15.10;99.90;;;;;;4974621;28;20036;-85
2022/05/20 06:14:48;;;;;;;38.95;29.38;;;15.30;99.90;;;;;;4974390;28;20434;-87
2022/05/20 06:17:13;;;;;;;34.35;24.67;;;15.40;99.90;;;;;;4971547;28;20466;-86
2022/05/20 06:19:40;;;;;;;32.42;23.80;;;15.60;99.90;;;;;;4978004;28;20033;-86
2022/05/20 06:22:06;;;;;;;34.00;20.98;;;15.70;99.90;;;;;;4972885;28;20034;-86
2022/05/20 06:24:32;;;;;;;27.65;20.23;;;15.70;99.90;;;;;;4975441;28;20568;-84
2022/05/20 06:26:58;;;;;;;24.98;18.52;;;15.70;99.90;;;;;;4970789;28;20030;-87
2022/05/20 06:29:24;;;;;;;25.67;17.63;;;15.70;99.90;;;;;;4971199;28;20118;-85
2022/05/20 06:31:49;;;;;;;24.38;18.10;;;15.80;99.90;;;;;;4970303;28;20507;-86
2022/05/20 06:34:15;;;;;;;21.08;15.40;;;15.80;99.90;;;;;;4976869;28;20057;-86
2022/05/20 06:42:09;;;;;;;17.50;12.15;;;16.00;99.90;;;;;;4985442;28;20034;-86
2022/05/20 06:44:35;;;;;;;20.52;11.88;;;16.10;99.90;;;;;;4987522;28;20034;-85
2022/05/20 06:47:00;;;;;;;19.65;11.38;;;16.10;99.90;;;;;;4974662;28;20038;-86
2022/05/20 06:49:26;;;;;;;17.15;10.57;;;16.20;99.90;;;;;;4975761;28;20117;-85
2022/05/20 06:51:54;;;;;;;16.27;10.90;;;16.30;99.90;;;;;;4971333;28;20033;-85
2022/05/20 06:54:20;;;;;;;15.20;10.88;;;16.30;99.90;;;;;;4972203;28;20113;-86
2022/05/20 06:56:46;;;;;;;15.48;9.80;;;16.40;99.90;;;;;;4972324;28;20037;-85
2022/05/20 06:59:12;;;;;;;13.32;8.93;;;16.50;99.90;;;;;;4993833;28;20058;-85
2022/05/20 07:01:39;;;;;;;10.80;7.65;;;16.60;99.90;;;;;;4986929;28;20088;-86
2022/05/20 07:04:05;;;;;;;14.68;7.63;;;16.70;99.90;;;;;;4964593;28;20502;-84
2022/05/20 07:06:32;;;;;;;10.18;7.07;;;16.80;99.90;;;;;;4969511;28;20184;-85
2022/05/20 07:08:58;;;;;;;10.48;7.18;;;16.80;99.90;;;;;;4975597;28;20030;-85
2022/05/20 07:11:25;;;;;;;11.70;6.05;;;16.90;99.90;;;;;;4992683;28;20033;-85
2022/05/20 07:13:55;;;;;;;7.28;5.10;;;16.90;99.90;;;;;;4975807;28;20034;-86
2022/05/20 07:16:22;;;;;;;6.68;3.83;;;17.00;99.90;;;;;;4976705;28;20034;-86
2022/05/20 07:18:47;;;;;;;6.43;3.97;;;17.00;99.90;;;;;;4970158;28;20031;-86
2022/05/20 07:21:13;;;;;;;6.32;3.22;;;17.00;99.90;;;;;;4974715;28;20569;-86
2022/05/20 07:23:39;;;;;;;13.40;3.97;;;17.20;99.90;;;;;;4973637;28;20046;-86
2022/05/20 07:26:05;;;;;;;7.25;3.92;;;17.20;99.90;;;;;;4992891;28;20093;-85
2022/05/20 07:28:31;;;;;;;8.18;4.68;;;17.30;99.90;;;;;;4975403;28;20494;-85
2022/05/20 07:30:57;;;;;;;11.85;5.82;;;17.30;99.90;;;;;;4975651;28;20038;-85
2022/05/20 07:33:23;;;;;;;8.93;6.22;;;17.40;99.90;;;;;;4976661;28;20372;-85
2022/05/20 07:35:49;;;;;;;11.70;6.50;;;17.50;99.90;;;;;;4969256;28;20045;-85
2022/05/20 07:38:15;;;;;;;8.93;5.82;;;17.60;99.90;;;;;;4972760;28;20023;-87
2022/05/20 07:40:43;;;;;;;12.45;7.28;;;17.70;99.90;;;;;;4976129;28;20030;-86
2022/05/20 07:43:09;;;;;;;10.77;6.85;;;17.80;99.90;;;;;;4976305;28;20659;-85
2022/05/20 07:45:35;;;;;;;14.38;7.00;;;17.80;99.90;;;;;;4976090;28;20062;-85
2022/05/20 07:48:00;;;;;;;10.60;6.90;;;18.00;99.90;;;;;;4992137;28;20092;-85
2022/05/20 07:50:26;;;;;;;11.93;7.43;;;18.00;99.90;;;;;;4975083;28;20061;-86
2022/05/20 07:55:41;;;;;;;13.57;9.30;;;18.10;99.90;;;;;;4985951;28;20045;-85
2022/05/20 07:58:11;;;;;;;14.23;7.75;;;18.20;99.90;;;;;;4974561;28;20035;-85
2022/05/20 08:00:37;;;;;;;12.45;7.63;;;18.30;99.90;;;;;;4974966;28;20033;-86
2022/05/20 08:03:04;;;;;;;8.50;7.18;;;18.40;99.90;;;;;;4973314;28;20026;-86
2022/05/20 08:05:31;;;;;;;11.80;6.65;;;18.50;99.90;;;;;;4974114;28;20034;-86
2022/05/20 08:08:00;;;;;;;11.40;5.53;;;18.60;99.90;;;;;;4974166;28;20119;-85
2022/05/20 08:10:28;;;;;;;7.82;5.90;;;18.70;99.90;;;;;;4970699;28;20045;-86
2022/05/20 08:12:54;;;;;;;7.22;4.57;;;18.70;99.90;;;;;;4968047;28;20037;-85
2022/05/20 08:15:20;;;;;;;6.93;4.50;;;18.90;99.90;;;;;;4968918;28;20069;-86
2022/05/20 08:17:46;;;;;;;8.23;4.28;;;19.00;99.90;;;;;;4989944;28;20034;-86
2022/05/20 08:20:22;;;;;;;8.52;4.22;;;19.20;99.90;;;;;;4975942;28;20026;-85
2022/05/20 08:22:49;;;;;;;7.28;4.57;;;19.30;99.90;;;;;;4961898;28;20026;-86
2022/05/20 08:25:15;;;;;;;8.68;5.22;;;19.20;99.90;;;;;;4970606;28;20070;-86
2022/05/20 08:27:40;;;;;;;6.50;4.13;;;19.10;99.90;;;;;;4974711;28;20066;-86
2022/05/20 08:30:19;;;;;;;8.07;3.90;;;19.20;99.90;;;;;;4975454;28;20064;-86
2022/05/20 08:32:45;;;;;;;8.55;4.05;;;19.30;99.90;;;;;;4969968;28;20210;-86
2022/05/20 08:35:10;;;;;;;7.75;4.10;;;19.20;99.90;;;;;;4973714;28;20037;-85
2022/05/20 08:37:44;;;;;;;5.55;3.65;;;19.30;99.90;;;;;;4973878;28;20030;-86
2022/05/20 08:40:13;;;;;;;7.80;3.70;;;19.40;99.90;;;;;;4974068;28;20030;-87
2022/05/20 08:42:39;;;;;;;6.45;3.50;;;19.40;99.90;;;;;;4989122;28;20030;-86
2022/05/20 08:45:05;;;;;;;8.43;4.15;;;19.50;99.90;;;;;;4972810;28;20038;-86
2022/05/20 08:47:44;;;;;;;7.22;4.25;;;19.70;99.90;;;;;;4988748;28;20398;-86
2022/05/20 08:50:14;;;;;;;5.85;3.72;;;20.00;99.90;;;;;;4988398;28;20410;-86
2022/05/20 08:52:40;;;;;;;8.07;2.58;;;20.10;99.90;;;;;;4977585;28;20341;-86
2022/05/20 08:55:07;;;;;;;4.10;1.90;;;20.30;99.90;;;;;;4989804;28;20098;-86
2022/05/20 08:57:33;;;;;;;3.85;2.45;;;20.40;99.90;;;;;;4976221;28;20041;-86
2022/05/20 08:59:59;;;;;;;3.97;1.75;;;20.60;99.90;;;;;;4974592;28;20026;-87
2022/05/20 09:02:25;;;;;;;6.95;1.98;;;20.70;99.90;;;;;;4976488;28;20379;-87
2022/05/20 09:04:51;;;;;;;4.63;1.80;;;20.70;99.80;;;;;;4975502;28;20077;-87
2022/05/20 09:07:20;;;;;;;3.30;1.33;;;20.70;99.50;;;;;;4976221;28;20039;-86
2022/05/20 09:09:45;;;;;;;3.72;1.17;;;20.70;98.50;;;;;;4973246;28;20030;-87
2022/05/20 09:12:24;;;;;;;3.78;1.13;;;20.70;97.50;;;;;;4974739;28;20125;-86
2022/05/20 09:17:48;;;;;;;4.43;1.70;;;20.80;97.50;;;;;;4997248;28;20402;-88
2022/05/20 09:20:18;;;;;;;5.85;2.28;;;21.00;97.50;;;;;;4979298;28;20113;-87
2022/05/20 09:22:55;;;;;;;5.38;1.83;;;21.20;96.40;;;;;;4999221;28;20026;-86
2022/05/20 09:25:23;;;;;;;5.20;2.20;;;21.40;96.50;;;;;;4991391;28;20046;-86
2022/05/20 09:27:51;;;;;;;6.40;2.95;;;21.50;96.90;;;;;;4979169;28;20114;-86
2022/05/20 09:30:23;;;;;;;6.80;2.58;;;21.70;96.00;;;;;;4978888;28;20497;-86
2022/05/20 09:33:21;;;;;;;;;;;21.90;95.60;;;;;;4964814;28;20085;-86
2022/05/20 09:36:00;;;;;;;6.18;2.17;;;22.00;96.00;;;;;;4947522;28;19945;-86
2022/05/20 09:38:46;;;;;;;5.63;2.90;;;22.20;95.60;;;;;;4979004;28;20034;-86
2022/05/20 09:41:20;;;;;;;5.18;2.38;;;22.30;94.20;;;;;;4976657;28;20580;-87
2022/05/20 09:43:56;;;;;;;7.10;2.15;;;22.20;93.70;;;;;;4977415;28;20501;-87
2022/05/20 09:46:32;;;;;;;6.03;2.38;;;22.10;93.90;;;;;;4994070;28;20048;-86
2022/05/20 09:49:05;;;;;;;5.35;2.60;;;22.20;94.70;;;;;;4975836;28;20027;-86
2022/05/20 09:51:58;;;;;;;4.63;1.95;;;22.20;94.20;;;;;;4990046;28;20034;-88
2022/05/20 09:54:37;;;;;;;6.95;2.92;;;22.20;93.80;;;;;;4964322;28;20042;-87
2022/05/20 09:57:05;;;;;;;7.88;2.03;;;22.20;93.40;;;;;;4972471;28;20093;-86
2022/05/20 10:00:05;;;;;;;7.32;2.85;;;22.10;93.50;;;;;;4976782;28;20030;-86
2022/05/20 10:02:33;;;;;;;4.35;2.28;;;22.10;92.80;;;;;;4977703;28;20507;-87
2022/05/20 10:05:19;;;;;;;6.68;2.80;;;22.10;92.50;;;;;;4977724;28;20138;-86
2022/05/20 10:08:17;;;;;;;5.75;2.50;;;22.20;92.20;;;;;;4968200;28;20039;-86
2022/05/20 10:10:42;;;;;;;10.57;2.85;;;22.30;92.30;;;;;;4978468;28;20034;-87
2022/05/20 10:13:16;;;;;;;4.88;2.90;;;22.30;92.20;;;;;;4972562;28;20122;-86
2022/05/20 10:15:47;;;;;;;5.00;2.67;;;22.50;92.90;;;;;;4968143;28;20487;-87
2022/05/20 10:18:32;;;;;;;5.60;2.73;;;22.50;91.70;;;;;;4979737;28;20033;-86
2022/05/20 10:21:12;;;;;;;6.53;3.15;;;22.50;91.80;;;;;;4971395;28;20293;-86
2022/05/20 10:23:43;;;;;;;7.68;3.55;;;22.50;91.50;;;;;;4976224;28;20038;-86
2022/05/20 10:26:35;;;;;;;8.70;3.88;;;22.50;91.50;;;;;;4974254;28;20035;-86
2022/05/20 10:34:42;;;;;;;8.50;3.70;;;22.50;90.50;;;;;;4990250;28;19967;-86
2022/05/20 10:37:27;;;;;;;9.13;4.32;;;22.70;89.70;;;;;;4978360;28;20034;-86
2022/05/20 10:40:21;;;;;;;6.70;3.95;;;22.90;90.10;;;;;;4970234;28;20034;-87
2022/05/20 10:43:11;;;;;;;7.25;4.05;;;23.00;89.90;;;;;;4973956;28;20038;-87
2022/05/20 10:48:43;;;;;;;7.28;4.30;;;23.40;90.20;;;;;;4982861;28;20049;-86
2022/05/20 10:51:43;;;;;;;6.75;4.45;;;23.50;89.60;;;;;;4965967;28;20029;-86
2022/05/20 10:54:22;;;;;;;7.60;4.45;;;23.40;88.40;;;;;;4956024;28;20093;-87
2022/05/20 10:57:02;;;;;;;8.50;5.63;;;23.20;88.80;;;;;;4968914;28;20034;-86
2022/05/20 11:00:01;;;;;;;10.13;5.40;;;23.10;88.40;;;;;;4975893;28;20499;-93
2022/05/20 11:03:04;;;;;;;10.23;4.70;;;23.00;89.50;;;;;;4971619;28;20022;-92
2022/05/20 11:06:09;;;;;;;8.10;4.22;;;23.00;90.10;;;;;;4967546;28;20031;-93
2022/05/20 11:09:01;;;;;;;6.25;4.72;;;23.10;90.60;;;;;;4984019;28;20035;-94
2022/05/20 11:11:47;;;;;;;8.30;5.50;;;23.20;90.90;;;;;;4967841;28;20037;-89
2022/05/20 11:14:32;;;;;;;6.75;4.68;;;23.30;90.40;;;;;;4969408;28;20041;-92
2022/05/20 11:17:30;;;;;;;19.75;7.45;;;23.20;90.70;;;;;;4969408;28;20035;-93
2022/05/20 11:20:22;;;;;;;8.05;6.43;;;23.20;90.90;;;;;;4970563;28;20050;-91
2022/05/20 11:23:43;;;;;;;10.10;7.70;;;23.30;91.10;;;;;;4966270;28;20037;-93
2022/05/20 11:26:20;;;;;;;10.18;7.55;;;23.30;90.60;;;;;;4917578;28;20042;-91
2022/05/20 11:28:55;;;;;;;10.43;7.13;;;23.30;91.10;;;;;;4969682;28;20027;-92
2022/05/20 11:31:50;;;;;;;9.50;7.63;;;23.30;91.20;;;;;;4983681;28;20046;-92
2022/05/20 11:34:30;;;;;;;12.10;8.25;;;23.50;91.40;;;;;;4967018;28;20114;-92
2022/05/20 11:37:10;;;;;;;11.70;8.55;;;23.60;91.50;;;;;;4965577;28;20042;-94
2022/05/20 11:39:54;;;;;;;11.48;9.10;;;23.80;91.50;;;;;;4964658;28;20054;-93
2022/05/20 11:42:37;;;;;;;14.73;9.50;;;23.80;91.30;;;;;;4973763;28;20042;-95
2022/05/20 11:45:27;;;;;;;10.82;8.27;;;23.80;91.00;;;;;;4979764;28;20155;-93
2022/05/20 11:48:14;;;;;;;8.93;8.00;;;23.90;91.10;;;;;;4977671;28;20081;-93
2022/05/20 11:51:07;;;;;;;10.90;8.95;;;23.90;91.00;;;;;;4973064;28;20133;-93
2022/05/20 11:53:54;;;;;;;;;;;23.80;91.00;;;;;;4970122;28;20061;-92
2022/05/20 11:56:22;;;;;;;16.25;11.30;;;23.60;91.20;;;;;;4962969;28;19914;-92
2022/05/20 11:58:55;;;;;;;15.00;11.00;;;23.40;91.30;;;;;;4970345;28;20019;-92
2022/05/20 12:01:22;;;;;;;15.93;12.38;;;23.40;91.60;;;;;;4962982;28;20022;-92
2022/05/20 12:04:07;;;;;;;15.98;11.85;;;23.20;91.50;;;;;;4973125;28;20026;-92
2022/05/20 12:06:46;;;;;;;15.07;11.02;;;23.10;92.10;;;;;;4974274;28;20038;-90
2022/05/20 12:09:36;;;;;;;13.95;10.65;;;23.00;92.50;;;;;;4974643;28;20502;-92
2022/05/20 12:12:21;;;;;;;14.88;11.85;;;22.80;92.60;;;;;;4964601;28;20113;-91
2022/05/20 12:15:13;;;;;;;14.95;11.63;;;22.60;93.30;;;;;;4976334;28;20050;-92
2022/05/20 12:17:42;;;;;;;16.35;11.63;;;22.40;93.80;;;;;;4974520;28;20037;-91
2022/05/20 12:26:20;;;;;;;19.42;13.13;;;21.90;95.50;;;;;;4989177;28;20034;-86
2022/05/20 12:28:46;;;;;;;18.90;13.43;;;21.80;96.10;;;;;;4968078;28;20383;-87
2022/05/20 12:31:14;;;;;;;18.30;13.40;;;21.60;96.70;;;;;;4968407;28;20041;-87
2022/05/20 12:33:59;;;;;;;16.30;12.07;;;21.40;97.60;;;;;;4981689;28;20037;-87
2022/05/20 12:36:27;;;;;;;21.60;13.18;;;21.30;98.10;;;;;;4968045;28;20371;-86
2022/05/20 12:39:13;;;;;;;21.83;13.30;;;21.00;99.60;;;;;;4985423;28;20046;-87
2022/05/20 12:41:46;;;;;;;22.10;13.82;;;20.80;99.90;;;;;;4979573;28;20539;-88
2022/05/20 12:44:21;;;;;;;25.30;15.90;;;20.60;99.90;;;;;;4981736;28;20169;-87
2022/05/20 12:47:12;;;;;;;20.05;14.63;;;20.40;99.90;;;;;;4966642;28;20039;-86
2022/05/20 12:49:44;;;;;;;18.90;14.07;;;20.20;99.90;;;;;;4987784;28;20030;-87
2022/05/20 12:52:24;;;;;;;20.65;14.80;;;20.00;99.90;;;;;;4974624;28;20037;-87
2022/05/20 12:54:55;;;;;;;27.10;16.50;;;19.80;99.90;;;;;;4981508;28;20471;-88
2022/05/20 12:57:26;;;;;;;22.93;15.70;;;19.60;99.90;;;;;;4980971;28;20026;-87
2022/05/20 13:00:04;;;;;;;24.67;17.63;;;19.50;99.90;;;;;;4972134;28;20736;-85
2022/05/20 13:02:45;;;;;;;25.10;16.95;;;19.50;99.90;;;;;;4968532;28;20022;-85
2022/05/20 13:05:28;;;;;;;21.60;15.52;;;19.40;99.90;;;;;;4962791;28;20032;-85
2022/05/20 13:07:55;;;;;;;;;;;19.40;99.90;;;;;;4986953;28;20039;-84
2022/05/20 13:10:27;;;;;;;19.83;14.95;;;19.40;99.90;;;;;;4971842;28;19956;-84
2022/05/20 13:12:58;;;;;;;24.02;17.70;;;19.40;99.90;;;;;;4991460;28;20034;-84
2022/05/20 13:15:23;;;;;;;22.70;16.20;;;19.50;99.90;;;;;;4971370;28;20034;-84
2022/05/20 13:17:58;;;;;;;29.90;17.73;;;19.70;99.90;;;;;;4971314;28;20070;-85
2022/05/20 13:20:26;;;;;;;25.40;18.00;;;19.80;99.90;;;;;;4971378;28;20035;-84
2022/05/20 13:22:51;;;;;;;29.05;18.40;;;20.00;99.90;;;;;;4956905;28;20081;-85
2022/05/20 13:25:19;;;;;;;26.40;16.77;;;20.10;99.90;;;;;;4971008;28;20042;-84
2022/05/20 13:27:47;;;;;;;28.02;19.05;;;20.30;99.90;;;;;;4965189;28;20081;-85
2022/05/20 13:30:18;;;;;;;25.45;18.20;;;20.30;99.90;;;;;;4971268;28;20477;-84
2022/05/20 13:32:44;;;;;;;25.75;17.63;;;20.30;99.90;;;;;;4979412;28;20026;-84
2022/05/20 13:35:10;;;;;;;28.40;19.40;;;20.40;99.90;;;;;;4972398;28;20398;-84
2022/05/20 13:37:40;;;;;;;25.20;18.30;;;20.40;99.90;;;;;;4964501;28;20031;-84